Time;durP1;ratioP1;P1;durP2;ratioP2;P2;SDS_P1;SDS_P2;PMS_P1;PMS_P2;Temp;Humidity;BMP_temperature;BMP_pressure;BME280_temperature;BME280_humidity;BME280_pressure;Samples;Min_cycle;Max_cycle;Signal;HPM_P1;HPM_P2
2020/12/28 00:00:59;;;;;;;35.60;20.25;;;;;;;-0.34;100.00;97147.16;2033328;29;20244;-68
2020/12/28 00:02:00;;;;;;;36.70;20.90;;;;;;;-0.39;100.00;97138.56;2033501;29;20228;-68
2020/12/28 00:03:01;;;;;;;40.90;20.23;;;;;;;-0.33;100.00;97142.72;2032748;29;20239;-68
2020/12/28 00:04:02;;;;;;;35.77;21.20;;;;;;;-0.35;100.00;97143.00;2032637;29;20231;-68
2020/12/28 00:05:05;;;;;;;34.67;21.30;;;;;;;-0.35;100.00;97139.56;2033533;29;20231;-69
2020/12/28 00:06:07;;;;;;;37.17;20.30;;;;;;;-0.38;100.00;97130.41;2033407;29;20223;-68
2020/12/28 00:07:08;;;;;;;37.63;20.70;;;;;;;-0.38;100.00;97127.00;2032180;29;20587;-69
2020/12/28 00:08:09;;;;;;;34.58;20.27;;;;;;;-0.43;100.00;97121.81;2032605;29;20814;-68
2020/12/28 00:09:10;;;;;;;34.58;21.17;;;;;;;-0.42;100.00;97126.00;2033419;29;20227;-69
2020/12/28 00:10:12;;;;;;;37.03;20.77;;;;;;;-0.44;100.00;97115.00;2032753;29;20239;-69
2020/12/28 00:11:16;;;;;;;31.27;19.92;;;;;;;-0.45;100.00;97113.44;2032744;29;20714;-69
2020/12/28 00:12:18;;;;;;;35.63;20.40;;;;;;;-0.54;100.00;97105.38;2033380;29;20223;-69
2020/12/28 00:13:19;;;;;;;38.80;20.65;;;;;;;-0.47;100.00;97107.69;2033355;29;20219;-69
2020/12/28 00:14:21;;;;;;;38.87;20.00;;;;;;;-0.45;100.00;97103.75;2033431;29;20241;-69
2020/12/28 00:15:23;;;;;;;36.78;21.48;;;;;;;-0.45;100.00;97108.19;2032038;29;20231;-69
2020/12/28 00:16:24;;;;;;;35.58;20.42;;;;;;;-0.47;100.00;97098.00;2032607;29;20223;-68
2020/12/28 00:17:25;;;;;;;33.38;19.63;;;;;;;-0.46;100.00;97107.41;2032557;29;20234;-67
2020/12/28 00:18:26;;;;;;;36.87;19.90;;;;;;;-0.44;100.00;97107.13;2032598;29;20319;-67
2020/12/28 00:19:27;;;;;;;36.38;20.73;;;;;;;-0.46;100.00;97110.03;2032546;29;20231;-70
2020/12/28 00:20:30;;;;;;;36.03;19.93;;;;;;;-0.46;100.00;97106.63;2032560;29;20765;-68
2020/12/28 00:21:31;;;;;;;30.08;19.08;;;;;;;-0.47;100.00;97118.16;2032456;29;20249;-68
2020/12/28 00:22:32;;;;;;;33.37;19.87;;;;;;;-0.45;100.00;97118.69;2031887;29;20250;-68
2020/12/28 00:23:33;;;;;;;36.67;20.80;;;;;;;-0.47;100.00;97120.78;2033242;29;20238;-68
2020/12/28 00:24:34;;;;;;;33.00;20.10;;;;;;;-0.48;100.00;97120.00;2033164;29;20229;-68
2020/12/28 00:25:36;;;;;;;33.85;20.23;;;;;;;-0.48;100.00;97129.72;2032123;29;20582;-68
2020/12/28 00:26:37;;;;;;;34.05;20.90;;;;;;;-0.47;100.00;97120.78;2032322;29;20223;-71
2020/12/28 00:27:38;;;;;;;37.53;20.42;;;;;;;-0.48;100.00;97120.00;2032192;29;20235;-69
2020/12/28 00:28:39;;;;;;;37.87;20.97;;;;;;;-0.48;100.00;97114.78;2032596;29;20282;-69
2020/12/28 00:29:41;;;;;;;35.63;20.38;;;;;;;-0.47;100.00;97113.72;2032399;29;20231;-69
2020/12/28 00:30:42;;;;;;;36.22;21.15;;;;;;;-0.47;100.00;97118.16;2033209;29;20652;-69
2020/12/28 00:31:43;;;;;;;34.38;19.95;;;;;;;-0.47;100.00;97123.41;2032564;29;20220;-68
2020/12/28 00:32:44;;;;;;;34.97;20.20;;;;;;;-0.50;100.00;97113.50;2032445;29;20250;-68
2020/12/28 00:33:45;;;;;;;36.70;20.15;;;;;;;-0.49;100.00;97115.03;2033252;29;20742;-69
2020/12/28 00:34:46;;;;;;;34.53;19.97;;;;;;;-0.52;100.00;97105.09;2033276;29;20678;-69
2020/12/28 00:35:47;;;;;;;33.97;19.75;;;;;;;-0.62;100.00;97093.63;2032573;29;20239;-68
2020/12/28 00:36:48;;;;;;;37.97;20.80;;;;;;;-0.50;100.00;97103.00;2032557;29;20228;-68
2020/12/28 00:37:49;;;;;;;37.97;21.27;;;;;;;-0.52;100.00;97098.06;2033126;29;20250;-69
2020/12/28 00:38:50;;;;;;;33.50;20.87;;;;;;;-0.52;100.00;97100.66;2033251;29;20237;-68
2020/12/28 00:39:51;;;;;;;31.60;19.33;;;;;;;-0.52;100.00;97105.09;2032645;29;20223;-69
2020/12/28 00:40:52;;;;;;;33.93;20.00;;;;;;;-0.49;100.00;97107.19;2032179;29;20814;-71
2020/12/28 00:41:53;;;;;;;32.17;18.45;;;;;;;-0.49;100.00;97096.72;2033247;29;20702;-70
2020/12/28 00:42:54;;;;;;;38.73;20.83;;;;;;;-0.49;100.00;97100.13;2033124;29;20663;-68
2020/12/28 00:43:58;;;;;;;36.35;20.55;;;;;;;-0.49;100.00;97101.94;2032186;29;20355;-68
2020/12/28 00:45:00;;;;;;;30.07;17.73;;;;;;;-0.48;100.00;97088.56;2032383;29;20283;-69
2020/12/28 00:46:01;;;;;;;26.30;16.98;;;;;;;-0.52;100.00;97077.09;2032334;29;20790;-68
2020/12/28 00:47:02;;;;;;;32.40;19.67;;;;;;;-0.39;100.00;97097.41;2024549;29;20599;-69
2020/12/28 00:48:03;;;;;;;35.30;20.63;;;;;;;-0.38;100.00;97101.59;2032535;29;20230;-69
2020/12/28 00:49:05;;;;;;;37.13;20.40;;;;;;;-0.38;100.00;97104.22;2032595;29;20316;-69
2020/12/28 00:50:06;;;;;;;36.45;20.33;;;;;;;-0.42;100.00;97111.06;2032407;29;20227;-69
2020/12/28 00:51:11;;;;;;;29.70;18.00;;;;;;;-0.42;100.00;97105.06;2031844;29;20227;-69
2020/12/28 00:52:12;;;;;;;37.47;20.85;;;;;;;-0.48;100.00;97106.91;2032358;29;20246;-68
2020/12/28 00:53:13;;;;;;;30.20;19.30;;;;;;;-0.53;100.00;97098.28;2033134;29;20683;-68
2020/12/28 00:54:14;;;;;;;35.65;19.90;;;;;;;-0.47;100.00;97107.69;2032238;29;20243;-68
2020/12/28 00:55:15;;;;;;;37.47;20.60;;;;;;;-0.54;100.00;97109.84;2032480;29;20231;-68
2020/12/28 00:56:17;;;;;;;37.05;20.15;;;;;;;-0.68;100.00;97097.34;2032344;29;20366;-68
2020/12/28 00:57:19;;;;;;;35.23;20.37;;;;;;;-0.64;100.00;97108.84;2032455;29;20223;-68
2020/12/28 00:58:20;;;;;;;31.92;18.15;;;;;;;-0.68;100.00;97094.75;2032261;29;20227;-68
2020/12/28 00:59:31;;;;;;;32.00;19.30;;;;;;;-0.72;100.00;97083.22;2031932;29;20231;-68
2020/12/28 01:00:33;;;;;;;32.22;18.83;;;;;;;-0.67;100.00;97085.84;2032213;29;20310;-68
2020/12/28 01:01:36;;;;;;;29.63;18.10;;;;;;;-0.68;100.00;97079.03;2032269;29;20702;-68
2020/12/28 01:02:37;;;;;;;32.75;20.17;;;;;;;-0.70;100.00;97073.25;2031641;29;20232;-69
2020/12/28 01:03:44;;;;;;;32.20;19.70;;;;;;;-0.72;100.00;97070.13;2025224;29;20276;-68
2020/12/28 01:04:53;;;;;;;29.30;17.88;;;;;;;-0.75;100.00;97062.84;2025123;29;20228;-68
2020/12/28 01:05:58;;;;;;;28.88;17.38;;;;;;;-0.74;100.00;97067.03;2024778;29;20236;-69
2020/12/28 01:06:58;;;;;;;22.38;14.43;;;;;;;-0.71;100.00;97057.81;2032324;29;20681;-68
2020/12/28 01:08:39;;;;;;;33.38;17.52;;;;;;;-0.70;100.00;97048.91;2038979;29;20697;-68
2020/12/28 01:09:40;;;;;;;28.40;17.98;;;;;;;-0.76;100.00;97050.81;2031816;29;20725;-69
2020/12/28 01:10:43;;;;;;;24.20;15.07;;;;;;;-0.78;100.00;97041.63;2031991;29;20634;-68
2020/12/28 01:11:44;;;;;;;26.38;16.90;;;;;;;-0.69;100.00;97047.88;2031871;29;20250;-68
2020/12/28 01:12:46;;;;;;;24.52;16.60;;;;;;;-0.69;100.00;97053.13;2032096;29;20220;-68
2020/12/28 01:13:48;;;;;;;23.38;16.40;;;;;;;-0.70;100.00;97049.69;2031749;29;20678;-69
2020/12/28 01:14:49;;;;;;;26.80;17.60;;;;;;;-0.68;100.00;97050.22;2032283;29;20663;-68
2020/12/28 01:15:54;;;;;;;26.33;17.35;;;;;;;-0.66;100.00;97050.72;2031839;29;20230;-69
2020/12/28 01:16:58;;;;;;;28.40;18.88;;;;;;;-0.66;100.00;97044.72;2024689;29;20228;-68
2020/12/28 01:17:59;;;;;;;28.45;17.45;;;;;;;-0.67;100.00;97045.78;2032361;29;20255;-69
2020/12/28 01:19:11;;;;;;;25.20;16.40;;;;;;;-0.70;100.00;97039.22;2025128;29;20231;-68
2020/12/28 01:20:13;;;;;;;21.80;14.38;;;;;;;-0.60;100.00;97025.31;2032180;29;20223;-69
2020/12/28 01:21:19;;;;;;;22.03;15.10;;;;;;;-0.52;100.00;97032.56;2032934;29;20694;-69
2020/12/28 01:22:20;;;;;;;21.17;14.95;;;;;;;-0.50;100.00;97025.22;2032954;29;20622;-69
2020/12/28 01:23:21;;;;;;;17.17;13.30;;;;;;;-0.40;100.00;97025.13;2031981;29;20344;-68
2020/12/28 01:24:47;;;;;;;20.60;13.80;;;;;;;-0.32;100.00;97032.41;2033421;29;20742;-68
2020/12/28 01:25:50;;;;;;;16.52;12.48;;;;;;;-0.24;100.00;97028.41;2031949;29;20306;-68
2020/12/28 01:26:50;;;;;;;17.77;12.52;;;;;;;-0.22;100.00;97031.53;2024169;29;20612;-68
2020/12/28 01:27:52;;;;;;;17.23;13.27;;;;;;;-0.17;100.00;97043.81;2032031;29;20247;-69
2020/12/28 01:28:53;;;;;;;14.30;12.40;;;;;;;-0.12;100.00;97038.50;2031716;29;20264;-69
2020/12/28 01:29:55;;;;;;;16.92;12.85;;;;;;;-0.13;100.00;97037.72;2024482;29;20587;-68
2020/12/28 01:30:56;;;;;;;15.30;13.45;;;;;;;-0.08;100.00;97036.91;2032045;29;20235;-68
2020/12/28 01:32:16;;;;;;;14.15;11.43;;;;;;;-0.05;100.00;97039.75;2032395;29;20227;-68
2020/12/28 01:33:36;;;;;;;15.52;13.40;;;;;;;0.03;100.00;97045.44;2032576;29;20692;-68
2020/12/28 01:34:37;;;;;;;17.40;12.75;;;;;;;0.04;100.00;97042.53;2031664;29;20235;-71
2020/12/28 01:35:39;;;;;;;14.90;11.95;;;;;;;0.06;100.00;97045.66;2031793;29;20238;-69
2020/12/28 01:36:43;;;;;;;14.82;11.73;;;;;;;0.02;100.00;97028.94;2032069;29;20630;-69
2020/12/28 01:37:54;;;;;;;16.40;12.57;;;;;;;0.07;100.00;97033.34;2031597;29;20234;-68
2020/12/28 01:38:55;;;;;;;17.08;13.15;;;;;;;0.06;100.00;97031.78;2032021;29;20709;-68
2020/12/28 01:39:56;;;;;;;17.15;12.93;;;;;;;0.08;100.00;97040.13;2024356;29;20244;-68
2020/12/28 01:40:58;;;;;;;14.23;12.15;;;;;;;0.10;100.00;97038.81;2031935;29;20227;-68
2020/12/28 01:42:20;;;;;;;24.67;14.43;;;;;;;0.09;100.00;97041.69;2031560;29;20232;-68
2020/12/28 01:43:26;;;;;;;19.23;14.35;;;;;;;0.06;100.00;97040.44;2031540;29;20569;-68
2020/12/28 01:44:29;;;;;;;17.25;13.52;;;;;;;0.03;100.00;97034.97;2031976;29;20231;-68
2020/12/28 01:45:38;;;;;;;20.08;15.30;;;;;;;-0.01;100.00;97035.50;2024884;29;20228;-69
2020/12/28 01:46:42;;;;;;;21.35;15.75;;;;;;;-0.07;100.00;97034.00;2031938;29;20231;-68
2020/12/28 01:47:43;;;;;;;22.50;15.20;;;;;;;-0.11;100.00;97025.13;2031876;29;20279;-68
2020/12/28 01:48:47;;;;;;;16.73;14.30;;;;;;;-0.10;100.00;97016.19;2024599;29;20223;-68
2020/12/28 01:49:53;;;;;;;20.15;14.35;;;;;;;-0.14;100.00;97009.19;2031322;29;20231;-68
2020/12/28 01:50:55;;;;;;;18.73;13.87;;;;;;;-0.17;100.00;97005.28;2031940;29;20235;-68
2020/12/28 01:51:56;;;;;;;17.35;13.40;;;;;;;-0.24;100.00;97010.06;2031715;29;20239;-68
2020/12/28 01:52:57;;;;;;;20.65;13.88;;;;;;;-0.24;100.00;97009.28;2031922;29;20235;-69
2020/12/28 01:54:01;;;;;;;19.10;14.27;;;;;;;-0.30;100.00;97017.19;2031827;29;20258;-69
2020/12/28 01:55:14;;;;;;;18.45;14.00;;;;;;;-0.38;100.00;97006.50;2031492;29;20235;-68
2020/12/28 01:56:27;;;;;;;18.95;13.52;;;;;;;-0.38;100.00;97003.88;2031189;29;20754;-69
2020/12/28 01:57:29;;;;;;;17.00;12.38;;;;;;;-0.44;100.00;97000.53;2031803;29;20246;-68
2020/12/28 01:58:37;;;;;;;16.92;11.75;;;;;;;-0.44;100.00;96978.78;2031422;29;20249;-71
2020/12/28 01:59:39;;;;;;;14.07;11.20;;;;;;;-0.35;100.00;96992.84;2031675;29;20219;-68
2020/12/28 02:00:46;;;;;;;13.48;11.50;;;;;;;-0.34;100.00;96994.44;2031822;29;20298;-68
2020/12/28 02:01:51;;;;;;;14.23;11.75;;;;;;;-0.29;100.00;96994.38;2024120;29;20224;-68
2020/12/28 02:02:53;;;;;;;16.42;11.57;;;;;;;-0.23;100.00;96993.28;2031399;29;20223;-68
2020/12/28 02:04:07;;;;;;;13.95;10.65;;;;;;;-0.16;100.00;96996.34;2025139;29;20224;-72
2020/12/28 02:05:13;;;;;;;14.38;12.50;;;;;;;-0.06;100.00;96998.09;2024588;29;20224;-68
2020/12/28 02:06:14;;;;;;;12.53;11.03;;;;;;;0.02;100.00;97001.94;2023984;29;20224;-68
2020/12/28 02:07:17;;;;;;;15.60;11.27;;;;;;;0.09;100.00;96989.28;2031875;29;20725;-69
2020/12/28 02:08:20;;;;;;;11.90;10.65;;;;;;;0.18;100.00;96996.25;2031696;29;20226;-68
2020/12/28 02:09:20;;;;;;;12.27;10.93;;;;;;;0.11;100.00;96985.31;2031653;29;20227;-69
2020/12/28 02:10:22;;;;;;;11.03;9.93;;;;;;;0.19;100.00;96989.97;2031896;29;20235;-69
2020/12/28 02:11:23;;;;;;;18.05;12.93;;;;;;;0.26;100.00;96986.97;2031322;29;20273;-69
2020/12/28 02:12:24;;;;;;;16.10;12.00;;;;;;;0.18;100.00;96974.50;2023663;29;20232;-68
2020/12/28 02:13:24;;;;;;;15.13;11.95;;;;;;;0.21;100.00;96985.22;2031749;29;20250;-68
2020/12/28 02:14:48;;;;;;;17.08;11.88;;;;;;;0.21;100.00;96989.69;2031951;29;20227;-68
2020/12/28 02:16:12;;;;;;;11.68;9.77;;;;;;;0.28;100.00;96982.25;2033736;29;20239;-69
2020/12/28 02:17:24;;;;;;;12.38;10.30;;;;;;;0.21;100.00;96973.94;2031761;29;20287;-71
2020/12/28 02:18:41;;;;;;;13.50;11.07;;;;;;;0.37;100.00;96980.56;2033460;29;21230;-68
2020/12/28 02:19:53;;;;;;;11.65;10.30;;;;;;;0.34;100.00;96968.00;2031297;29;20234;-69
2020/12/28 02:20:54;;;;;;;17.17;12.82;;;;;;;0.37;100.00;96972.69;2031698;29;20231;-68
2020/12/28 02:21:57;;;;;;;13.77;10.77;;;;;;;0.60;100.00;96972.94;2031637;29;20710;-68
2020/12/28 02:23:03;;;;;;;16.63;12.00;;;;;;;0.51;100.00;96980.66;2031723;29;20348;-68
2020/12/28 02:24:05;;;;;;;10.23;9.23;;;;;;;0.56;100.00;96949.88;2031678;29;20247;-68
2020/12/28 02:25:10;;;;;;;10.63;9.52;;;;;;;0.99;100.00;96968.19;2024140;29;20238;-68
2020/12/28 02:26:12;;;;;;;10.48;9.35;;;;;;;0.73;100.00;96928.41;2031656;29;20235;-68
2020/12/28 02:27:13;;;;;;;11.13;9.85;;;;;;;1.01;100.00;96966.06;2031684;29;20247;-69
2020/12/28 02:28:15;;;;;;;13.48;10.18;;;;;;;0.91;100.00;96960.97;2023905;29;20232;-69
2020/12/28 02:29:16;;;;;;;10.68;9.68;;;;;;;0.96;100.00;96963.53;2023940;29;20240;-68
2020/12/28 02:30:18;;;;;;;8.70;8.10;;;;;;;0.99;100.00;96956.91;2023837;29;20228;-68
2020/12/28 02:31:38;;;;;;;9.23;8.52;;;;;;;0.97;100.00;96959.03;2031046;29;20306;-68
2020/12/28 02:32:58;;;;;;;8.90;8.20;;;;;;;1.02;100.00;96951.09;2032051;29;20227;-69
2020/12/28 02:34:13;;;;;;;10.00;9.05;;;;;;;1.19;100.00;96955.81;2031204;29;20298;-68
2020/12/28 02:35:24;;;;;;;8.10;7.60;;;;;;;1.48;100.00;96947.72;2031260;29;20258;-69
2020/12/28 02:36:28;;;;;;;8.18;7.50;;;;;;;1.67;100.00;96945.81;2031609;29;20234;-68
2020/12/28 02:37:30;;;;;;;8.10;7.50;;;;;;;1.77;100.00;96936.97;2031621;29;20233;-68
2020/12/28 02:38:34;;;;;;;8.40;7.80;;;;;;;1.85;100.00;96936.31;2031634;29;20781;-68
2020/12/28 02:39:35;;;;;;;7.37;6.97;;;;;;;2.12;100.00;96936.28;2023691;29;20593;-68
2020/12/28 02:40:36;;;;;;;7.88;7.28;;;;;;;2.23;100.00;96942.13;2023815;29;20476;-68
2020/12/28 02:41:37;;;;;;;7.50;7.00;;;;;;;2.36;100.00;96940.56;2031770;29;20279;-68
2020/12/28 02:42:56;;;;;;;7.40;7.00;;;;;;;2.55;100.00;96941.22;2031687;29;20235;-69
2020/12/28 02:44:16;;;;;;;7.53;7.13;;;;;;;2.62;100.00;96946.88;2031894;29;20302;-68
2020/12/28 02:45:35;;;;;;;7.97;7.50;;;;;;;2.72;100.00;96946.63;2031474;29;20302;-68
2020/12/28 02:46:55;;;;;;;8.05;7.60;;;;;;;2.79;100.00;96939.13;2031506;29;20703;-68
2020/12/28 02:48:14;;;;;;;8.60;8.00;;;;;;;2.81;100.00;96944.06;2031884;29;20630;-68
2020/12/28 02:49:34;;;;;;;7.60;7.20;;;;;;;3.06;100.00;96942.72;2032068;29;20302;-68
2020/12/28 02:50:53;;;;;;;7.88;7.47;;;;;;;3.10;100.00;96935.78;2031677;29;20238;-68
2020/12/28 02:52:21;;;;;;;7.53;7.13;;;;;;;3.12;100.00;96931.75;2037949;29;20226;-68
2020/12/28 02:53:41;;;;;;;7.80;7.40;;;;;;;3.05;100.00;96935.91;2031434;29;20231;-68
2020/12/28 02:55:00;;;;;;;7.45;7.05;;;;;;;2.87;100.00;96950.00;2031709;29;20235;-68
2020/12/28 02:56:20;;;;;;;7.63;7.18;;;;;;;2.72;100.00;96936.09;2032072;29;20235;-69
2020/12/28 02:57:39;;;;;;;7.35;6.95;;;;;;;2.68;100.00;96935.13;2031670;29;20250;-68
2020/12/28 02:58:58;;;;;;;7.70;7.20;;;;;;;2.70;100.00;96935.63;2032058;29;20227;-68
2020/12/28 03:00:18;;;;;;;7.03;6.72;;;;;;;2.82;100.00;96933.25;2032053;29;20231;-68
2020/12/28 03:01:37;;;;;;;7.43;7.03;;;;;;;2.98;100.00;96931.03;2031651;29;20230;-68
2020/12/28 03:03:17;;;;;;;8.10;7.70;;;;;;;3.16;100.00;96942.47;2038735;29;20740;-68
2020/12/28 03:04:36;;;;;;;7.78;7.40;;;;;;;3.22;100.00;96943.94;2039024;29;20301;-68
2020/12/28 03:05:56;;;;;;;8.18;7.70;;;;;;;3.20;100.00;96940.03;2038466;29;20238;-68
2020/12/28 03:07:15;;;;;;;7.60;7.10;;;;;;;3.26;100.00;96936.19;2038758;29;20250;-68
2020/12/28 03:08:35;;;;;;;7.30;7.00;;;;;;;3.31;100.00;96939.50;2037950;29;20633;-68
2020/12/28 03:10:06;;;;;;;7.30;6.90;;;;;;;3.31;100.00;96939.50;2038506;29;20760;-68
2020/12/28 03:11:25;;;;;;;6.95;6.65;;;;;;;3.41;100.00;96938.47;2037074;29;20230;-68
2020/12/28 03:12:45;;;;;;;7.63;7.22;;;;;;;3.50;100.00;96925.34;2031942;29;20314;-69
2020/12/28 03:14:04;;;;;;;7.45;7.05;;;;;;;3.46;100.00;96925.13;2032161;29;20226;-68
2020/12/28 03:15:24;;;;;;;7.47;7.03;;;;;;;3.30;100.00;96924.75;2031582;29;20231;-68
2020/12/28 03:16:43;;;;;;;7.50;7.00;;;;;;;3.12;100.00;96913.31;2031825;29;20231;-69
2020/12/28 03:18:03;;;;;;;7.97;7.55;;;;;;;3.10;100.00;96914.69;2031952;29;20231;-68
2020/12/28 03:19:23;;;;;;;7.55;7.15;;;;;;;2.93;100.00;96920.63;2031596;29;20231;-69
2020/12/28 03:20:42;;;;;;;7.22;6.93;;;;;;;2.86;100.00;96906.31;2031943;29;20679;-68
2020/12/28 03:22:02;;;;;;;7.63;7.22;;;;;;;2.71;100.00;96904.81;2031983;29;20671;-68
2020/12/28 03:23:21;;;;;;;8.05;7.40;;;;;;;2.67;100.00;96903.84;2031973;29;20231;-69
2020/12/28 03:24:41;;;;;;;7.43;7.03;;;;;;;2.60;100.00;96890.31;2031643;29;20227;-68
2020/12/28 03:26:01;;;;;;;7.80;7.40;;;;;;;2.52;100.00;96892.59;2031918;29;20582;-68
2020/12/28 03:27:21;;;;;;;8.05;7.65;;;;;;;2.37;100.00;96885.03;2031994;29;20219;-68
2020/12/28 03:29:01;;;;;;;8.35;7.85;;;;;;;2.34;100.00;96890.06;2038146;29;20268;-68
2020/12/28 03:30:20;;;;;;;7.80;7.40;;;;;;;2.30;100.00;96892.53;2038704;29;20230;-68
2020/12/28 03:31:40;;;;;;;8.00;7.50;;;;;;;2.26;100.00;96900.25;2038511;29;20234;-68
2020/12/28 03:33:00;;;;;;;7.97;7.57;;;;;;;2.17;100.00;96886.22;2038606;29;20222;-68
2020/12/28 03:34:19;;;;;;;8.50;8.00;;;;;;;2.22;100.00;96883.47;2037743;29;20227;-68
2020/12/28 03:35:39;;;;;;;7.47;7.07;;;;;;;2.32;100.00;96879.84;2031616;29;20228;-69
2020/12/28 03:37:00;;;;;;;7.85;7.45;;;;;;;2.21;100.00;96868.78;2031878;29;20666;-68
2020/12/28 03:38:20;;;;;;;7.35;6.95;;;;;;;2.20;100.00;96869.06;2031959;29;20251;-68
2020/12/28 03:39:40;;;;;;;8.73;8.20;;;;;;;2.31;100.00;96869.63;2031642;29;20682;-68
2020/12/28 03:41:00;;;;;;;7.93;7.53;;;;;;;2.20;100.00;96856.69;2031784;29;20227;-68
2020/12/28 03:42:20;;;;;;;8.30;7.80;;;;;;;2.22;100.00;96844.03;2032005;29;20231;-68
2020/12/28 03:43:40;;;;;;;8.50;8.10;;;;;;;2.08;100.00;96838.00;2031551;29;20318;-69
2020/12/28 03:44:59;;;;;;;9.18;8.70;;;;;;;1.88;100.00;96830.53;2031770;29;20227;-69
2020/12/28 03:46:18;;;;;;;8.60;8.10;;;;;;;2.01;100.00;96845.53;2031947;29;20226;-68
2020/12/28 03:47:38;;;;;;;8.00;7.60;;;;;;;1.97;100.00;96855.06;2031640;29;20227;-68
2020/12/28 03:49:15;;;;;;;8.32;7.82;;;;;;;1.84;100.00;96840.88;2038306;29;20741;-67
2020/12/28 03:50:34;;;;;;;7.90;7.50;;;;;;;1.79;100.00;96840.97;2038584;29;20230;-69
2020/12/28 03:51:57;;;;;;;7.40;7.10;;;;;;;1.75;100.00;96839.22;2033335;29;20235;-68
2020/12/28 03:53:16;;;;;;;8.13;7.68;;;;;;;1.67;100.00;96830.19;2031881;29;20686;-68
2020/12/28 03:54:36;;;;;;;8.60;8.10;;;;;;;1.65;100.00;96835.72;2031901;29;20231;-68
2020/12/28 03:56:07;;;;;;;7.80;7.40;;;;;;;1.64;100.00;96841.25;2038293;29;20237;-68
2020/12/28 03:57:26;;;;;;;8.48;7.97;;;;;;;1.58;100.00;96831.94;2036701;29;20280;-68
2020/12/28 03:58:46;;;;;;;8.25;7.85;;;;;;;1.55;100.00;96838.53;2033141;29;20223;-69
2020/12/28 04:00:05;;;;;;;8.80;8.30;;;;;;;1.52;100.00;96836.50;2033314;29;20219;-68
2020/12/28 04:01:16;;;;;;;7.93;7.53;;;;;;;1.53;100.00;96830.16;2032443;29;20671;-68
2020/12/28 04:02:38;;;;;;;8.02;7.63;;;;;;;1.51;100.00;96828.91;2032696;29;20231;-69
2020/12/28 04:03:58;;;;;;;8.45;7.82;;;;;;;1.50;100.00;96835.25;2032679;29;20239;-68
2020/12/28 04:05:17;;;;;;;8.80;8.40;;;;;;;1.58;100.00;96831.94;2033113;29;20314;-68
2020/12/28 04:06:37;;;;;;;8.02;7.63;;;;;;;1.60;100.00;96833.19;2033093;29;20325;-69
2020/12/28 04:07:56;;;;;;;9.05;8.30;;;;;;;1.53;100.00;96824.91;2032864;29;20243;-68
2020/12/28 04:09:15;;;;;;;8.05;7.65;;;;;;;1.50;100.00;96815.00;2033143;29;20223;-68
2020/12/28 04:10:34;;;;;;;7.90;7.40;;;;;;;1.47;100.00;96814.78;2033214;29;20231;-68
2020/12/28 04:11:59;;;;;;;8.07;7.68;;;;;;;1.50;100.00;96815.00;2034805;29;20227;-68
2020/12/28 04:13:05;;;;;;;7.80;7.40;;;;;;;1.50;100.00;96812.38;2032555;29;20239;-68
2020/12/28 04:14:06;;;;;;;8.00;7.60;;;;;;;1.55;100.00;96808.84;2032799;29;20219;-68
2020/12/28 04:15:06;;;;;;;8.65;8.15;;;;;;;1.53;100.00;96808.38;2032243;29;20231;-71
2020/12/28 04:16:08;;;;;;;8.20;7.80;;;;;;;1.47;100.00;96810.31;2033257;29;20234;-68
2020/12/28 04:17:08;;;;;;;8.80;8.30;;;;;;;1.44;100.00;96810.13;2032505;29;20232;-68
2020/12/28 04:18:10;;;;;;;9.33;8.73;;;;;;;1.47;100.00;96804.28;2032723;29;20231;-68
2020/12/28 04:19:10;;;;;;;9.20;8.70;;;;;;;1.67;100.00;96804.69;2033328;29;20585;-68
2020/12/28 04:20:11;;;;;;;8.43;7.93;;;;;;;1.74;100.00;96803.47;2032452;29;20434;-68
2020/12/28 04:21:13;;;;;;;8.18;7.68;;;;;;;1.64;100.00;96801.84;2032660;29;20761;-68
2020/12/28 04:22:14;;;;;;;8.80;8.30;;;;;;;1.65;100.00;96808.66;2032827;29;20295;-68
2020/12/28 04:23:15;;;;;;;8.23;7.72;;;;;;;1.59;100.00;96805.34;2032705;29;20416;-68
2020/12/28 04:24:16;;;;;;;8.60;8.20;;;;;;;1.52;100.00;96797.09;2033469;29;20233;-68
2020/12/28 04:25:17;;;;;;;8.38;7.85;;;;;;;1.54;100.00;96797.56;2033321;29;20227;-68
2020/12/28 04:26:18;;;;;;;7.87;7.47;;;;;;;1.49;100.00;96791.66;2033389;29;20315;-68
2020/12/28 04:27:20;;;;;;;8.60;8.10;;;;;;;1.49;100.00;96800.31;2033254;29;20223;-69
2020/12/28 04:28:21;;;;;;;8.20;7.70;;;;;;;1.50;100.00;96788.72;2033235;29;20307;-68
2020/12/28 04:29:21;;;;;;;8.20;7.80;;;;;;;1.57;100.00;96783.84;2032979;29;20318;-71
2020/12/28 04:30:23;;;;;;;8.17;7.60;;;;;;;1.57;100.00;96785.72;2033322;29;20238;-68
2020/12/28 04:31:23;;;;;;;8.18;7.72;;;;;;;1.64;100.00;96780.81;2033276;29;20231;-68
2020/12/28 04:32:24;;;;;;;8.10;7.70;;;;;;;1.46;100.00;96756.22;2033320;29;20286;-69
2020/12/28 04:33:25;;;;;;;7.80;7.40;;;;;;;1.67;100.00;96788.13;2033185;29;20228;-68
2020/12/28 04:34:26;;;;;;;8.80;8.30;;;;;;;1.73;100.00;96780.91;2033264;29;20306;-68
2020/12/28 04:35:27;;;;;;;7.95;7.55;;;;;;;1.67;100.00;96781.03;2032486;29;20243;-68
2020/12/28 04:36:28;;;;;;;8.07;7.67;;;;;;;1.67;100.00;96778.41;2032322;29;20746;-68
2020/12/28 04:37:29;;;;;;;8.35;7.95;;;;;;;1.69;100.00;96778.09;2032604;29;20224;-68
2020/12/28 04:38:31;;;;;;;8.35;7.95;;;;;;;1.69;100.00;96775.47;2032701;29;20230;-68
2020/12/28 04:39:32;;;;;;;8.18;7.78;;;;;;;1.67;100.00;96770.50;2033298;29;20227;-68
2020/12/28 04:40:33;;;;;;;7.80;7.40;;;;;;;1.68;100.00;96769.44;2032629;29;20235;-69
2020/12/28 04:41:34;;;;;;;7.80;7.40;;;;;;;1.69;100.00;96770.22;2032286;29;20227;-68
2020/12/28 04:42:40;;;;;;;8.03;7.63;;;;;;;1.63;100.00;96771.38;2032656;29;20223;-69
2020/12/28 04:43:44;;;;;;;7.72;7.32;;;;;;;1.64;100.00;96781.59;2032844;29;20227;-68
2020/12/28 04:44:46;;;;;;;8.77;8.20;;;;;;;1.57;100.00;96768.09;2032425;29;20223;-67
2020/12/28 04:45:47;;;;;;;8.25;7.85;;;;;;;1.63;100.00;96769.53;2032640;29;20215;-68
2020/12/28 04:46:48;;;;;;;8.30;7.90;;;;;;;1.66;100.00;96758.44;2033252;29;20268;-67
2020/12/28 04:47:49;;;;;;;8.30;7.90;;;;;;;1.67;100.00;96767.88;2033245;29;20232;-67
2020/12/28 04:48:51;;;;;;;8.57;7.97;;;;;;;1.62;100.00;96762.72;2032266;29;20255;-68
2020/12/28 04:49:51;;;;;;;8.52;8.02;;;;;;;1.59;100.00;96770.41;2024669;29;20281;-68
2020/12/28 04:50:54;;;;;;;8.50;8.00;;;;;;;1.65;100.00;96772.66;2024420;29;20232;-68
2020/12/28 04:51:55;;;;;;;8.75;8.25;;;;;;;1.62;100.00;96765.34;2032397;29;20478;-68
2020/12/28 04:52:56;;;;;;;8.95;8.30;;;;;;;1.63;100.00;96763.50;2033165;29;20290;-68
2020/12/28 04:53:58;;;;;;;9.30;8.80;;;;;;;1.54;100.00;96752.88;2033157;29;20279;-68
2020/12/28 04:54:59;;;;;;;8.13;7.72;;;;;;;1.58;100.00;96763.63;2032229;29;20227;-68
2020/12/28 04:56:00;;;;;;;8.25;7.75;;;;;;;1.57;100.00;96765.47;2032294;29;20231;-68
2020/12/28 04:57:01;;;;;;;8.70;8.20;;;;;;;1.53;100.00;96761.84;2033097;29;20250;-68
2020/12/28 04:58:03;;;;;;;7.72;7.32;;;;;;;1.52;100.00;96762.94;2033124;29;20230;-68
2020/12/28 04:59:04;;;;;;;8.10;7.70;;;;;;;1.53;100.00;96766.31;2032294;29;20223;-68
2020/12/28 05:00:05;;;;;;;7.82;7.43;;;;;;;1.50;100.00;96757.19;2032481;29;20235;-68
2020/12/28 05:01:06;;;;;;;9.10;8.60;;;;;;;1.52;100.00;96759.53;2032553;29;20302;-68
2020/12/28 05:02:07;;;;;;;9.20;8.70;;;;;;;1.59;100.00;96773.81;2031973;29;20314;-68
2020/12/28 05:03:08;;;;;;;8.57;8.10;;;;;;;1.55;100.00;96764.97;2033096;29;20238;-68
2020/12/28 05:04:09;;;;;;;9.13;8.63;;;;;;;1.54;100.00;96757.38;2032878;29;20703;-68
2020/12/28 05:05:10;;;;;;;8.63;8.20;;;;;;;1.50;100.00;96759.03;2033030;29;20658;-69
2020/12/28 05:06:11;;;;;;;9.30;8.80;;;;;;;1.54;100.00;96763.41;2032515;29;20227;-68
2020/12/28 05:07:12;;;;;;;9.43;8.93;;;;;;;1.51;100.00;96758.75;2031730;29;20868;-70
2020/12/28 05:08:13;;;;;;;9.52;9.02;;;;;;;1.46;100.00;96750.94;2032940;29;20235;-68
2020/12/28 05:09:14;;;;;;;9.20;8.50;;;;;;;1.61;100.00;96757.75;2032213;29;20227;-68
2020/12/28 05:10:25;;;;;;;8.30;7.90;;;;;;;1.59;100.00;96752.81;2032169;29;20235;-68
2020/12/28 05:11:26;;;;;;;8.60;8.10;;;;;;;1.60;100.00;96762.25;2031718;29;20231;-69
2020/12/28 05:12:27;;;;;;;8.80;8.32;;;;;;;1.59;100.00;96747.53;2032447;29;20235;-68
2020/12/28 05:13:29;;;;;;;9.03;8.63;;;;;;;1.59;100.00;96742.28;2033059;29;20223;-68